Perrinton, MI (48871)

6:23 PM EDT on July 24, 2016 (GMT -0400)
APRSWXNET | | Change Station

Elev 738 ft 43.19 °N, 84.71 °W | Updated 29 minutes ago

Overcast
Overcast
88 °F
Feels Like 103 °F
N
7
Wind Variable Wind from South
Gusts 0.0 mph

Today
High -- | Low -- °F
--% Chance of Precip.
Yesterday
High -- | Low -- °F
Precip. -- in
Pressure 29.86 in
Visibility 10.0 miles
Clouds Overcast 10000 ft
Heat Index 103 °F
Dew Point 79 °F
Humidity 75%
Rainfall in
Snow Depth Not available.
6:21 AM 9:08 PM
Waning Gibbous, 72% visible
METAR KAMN 242211Z AUTO 23007KT 10SM OVC100 31/26 A2986 RMK AO2 T03090256
Pressure 29.86 in
Visibility 10.0 miles
Clouds Overcast 10000 ft
Heat Index 103 °F
Dew Point 79 °F
Humidity 75%
Rainfall in
Snow Depth Not available.
6:21 AM 9:08 PM
Waning Gibbous, 72% visible
METAR KAMN 242211Z AUTO 23007KT 10SM OVC100 31/26 A2986 RMK AO2 T03090256

10-Day Weather Forecast

Almanac

Astronomy

Jul. 24, 2016 Rise Set
Actual Time
Civil Twilight
Nautical Twilight
Astronomical Twilight
Moon
Length of Visible Light
Length of Day
Tomorrow will be .
, % of the Moon is Illuminated

Today's Extremes

State Highs State Lows

Community

WunderPhotos

Upload Photos

1,927,203 photos uploaded!

WunderBlog® & News

Nearby

Air Quality

  Air Quality AQ Index Pollutant
Not available.

Snow Depth

Station Depth Elevation

Earthquake Activity

City Distance Mag. Time & Date
Minimum magnitude displayed is 2.5.

Coastal Water Temperatures

Place Temperature

Stations

Nearby Weather Stations

Station Location Temp. Windchill Dew Point Humidity Wind Precip. Elev Updated Type
                   

Watches & Warnings

There are currently no watches in effect.